Trine Charlotte — LMRY — position and weather

sailwx.info

Track history (hours):
 
Tides and Currents Weather Stations Pressure Air Temp Water Temp Dewpoint Dewpoint Depression Visibility Wind Speed Wind Dir Waves Ship Positions

Trine Charlotte

Last reported at 2017-Oct-20 14:00 UTC. Time now 2017-Oct-20 14:54 UTC.
Position N 69°01' E 015°15'.

Length 66 m; draft 4.4 m.

Type: Wing in ground effect craft. MMSI: 257233000.

Date/timePositionNaut miles runAvg speedWind from/ knotsBaromVisibWave heightAir tempDewpointWater temp
2017-Oct-20 14:00N 69°01' E 015°15'4 8.0
2017-Oct-20 13:30N 68°58' E 015°22'5 9.5
2017-Oct-20 13:00N 68°53' E 015°25'3 6.2
2017-Oct-20 12:30N 68°54' E 015°33'5 9.3
2017-Oct-20 12:00N 68°58' E 015°38'5 9.6
2017-Oct-20 11:30N 68°59' E 015°51'5 9.4
2017-Oct-20 11:00N 68°58' E 016°04'5 9.7
2017-Oct-20 10:30N 68°56' E 016°17'5 9.7
2017-Oct-20 10:00N 68°53' E 016°26'2 4.1
2017-Oct-20 09:30N 68°51' E 016°30'0 0.0
2017-Oct-20 09:00N 68°51' E 016°30'0 0.0
2017-Oct-20 08:30N 68°51' E 016°30'0 0.0
2017-Oct-20 08:00N 68°51' E 016°30'0 0.0
2017-Oct-20 07:30N 68°51' E 016°30'0 0.0
2017-Oct-20 07:00N 68°51' E 016°30'0 0.0
2017-Oct-20 06:31N 68°51' E 016°30'0 0.0
2017-Oct-20 06:00N 68°51' E 016°30'0 0.0
2017-Oct-20 05:30N 68°51' E 016°30'0 0.0
2017-Oct-20 05:00N 68°51' E 016°30'0 0.0
2017-Oct-20 04:30N 68°51' E 016°30'0 0.0
2017-Oct-20 04:00N 68°51' E 016°30'0 0.0
2017-Oct-20 03:30N 68°51' E 016°30'0 0.0
2017-Oct-20 03:00N 68°51' E 016°30'0 0.0
2017-Oct-20 02:30N 68°51' E 016°30'0 0.0
2017-Oct-20 02:00N 68°51' E 016°30'0 0.0
2017-Oct-20 01:30N 68°51' E 016°30'0 0.0
2017-Oct-20 01:00N 68°51' E 016°30'0 0.0
2017-Oct-20 00:30N 68°51' E 016°30'0 0.0
2017-Oct-20 00:00N 68°51' E 016°30'0 0.0
2017-Oct-19 23:30N 68°51' E 016°30'0 0.0
2017-Oct-19 23:00N 68°51' E 016°30'0 0.0
2017-Oct-19 22:30N 68°51' E 016°30'0 0.0
2017-Oct-19 22:00N 68°51' E 016°30'0 0.0
2017-Oct-19 21:31N 68°51' E 016°30'0 0.0
2017-Oct-19 21:00N 68°51' E 016°30'0 0.0
2017-Oct-19 20:30N 68°51' E 016°30'0 0.0
2017-Oct-19 20:00N 68°51' E 016°30'0 0.0
2017-Oct-19 19:30N 68°51' E 016°30'0 0.0
2017-Oct-19 19:00N 68°51' E 016°30'0 0.0
2017-Oct-19 18:30N 68°51' E 016°30'0 0.0
2017-Oct-19 18:00N 68°51' E 016°30'0 0.0
2017-Oct-19 17:31N 68°51' E 016°30'0 0.0
2017-Oct-19 17:00N 68°51' E 016°30'0 0.0
2017-Oct-19 16:30N 68°51' E 016°30'0 0.0
2017-Oct-19 16:01N 68°51' E 016°30'0 0.0
2017-Oct-19 15:31N 68°51' E 016°30'0 0.0
2017-Oct-19 15:01N 68°51' E 016°30'0 0.0
2017-Oct-19 14:30N 68°51' E 016°30'0 0.0
2017-Oct-19 14:00N 68°51' E 016°30'0 0.0
2017-Oct-19 13:30N 68°51' E 016°30'0 0.0
2017-Oct-19 13:00N 68°51' E 016°30'0 0.0
2017-Oct-19 12:30N 68°51' E 016°30'0 0.0
2017-Oct-19 12:00N 68°51' E 016°30'0 0.0
2017-Oct-19 11:30N 68°51' E 016°30'0 0.0
2017-Oct-19 11:00N 68°51' E 016°30'0 0.0
2017-Oct-19 10:30N 68°51' E 016°30'0 0.0
2017-Oct-19 10:01N 68°51' E 016°30'0 0.0
2017-Oct-19 09:30N 68°51' E 016°30'0 0.0
2017-Oct-19 09:00N 68°51' E 016°30'0 0.0
2017-Oct-19 08:30N 68°51' E 016°30'0 0.0
2017-Oct-19 08:01N 68°51' E 016°30'0 0.0
2017-Oct-19 07:30N 68°51' E 016°30'0 0.0
2017-Oct-19 07:00N 68°51' E 016°30'0 0.0
2017-Oct-19 06:31N 68°51' E 016°30'0 0.0
2017-Oct-19 06:00N 68°51' E 016°30'0 0.0
2017-Oct-19 05:30N 68°51' E 016°30'0 0.0
2017-Oct-19 05:00N 68°51' E 016°30'0 0.0
2017-Oct-19 04:30N 68°51' E 016°30'0 0.0
2017-Oct-19 04:00N 68°51' E 016°30'0 0.0
2017-Oct-19 03:30N 68°51' E 016°30'0 0.0
2017-Oct-19 03:01N 68°51' E 016°30'0 0.0
2017-Oct-19 02:31N 68°51' E 016°30'0 0.0
2017-Oct-19 02:00N 68°51' E 016°30'0 0.0
2017-Oct-19 01:31N 68°51' E 016°30'0 0.0
2017-Oct-19 01:00N 68°51' E 016°30'0 0.0
2017-Oct-19 00:30N 68°51' E 016°30'0 0.0
2017-Oct-19 00:00N 68°51' E 016°30'0 0.0
2017-Oct-18 23:30N 68°51' E 016°30'0 0.0
2017-Oct-18 23:01N 68°51' E 016°30'0 0.0
2017-Oct-18 22:30N 68°51' E 016°30'0 0.0
2017-Oct-18 22:00N 68°51' E 016°30'0 0.0
2017-Oct-18 21:31N 68°51' E 016°30'0 0.7
2017-Oct-18 21:00N 68°51' E 016°30'4 8.4
2017-Oct-18 20:30N 68°54' E 016°22'5 9.1
2017-Oct-18 20:00N 68°57' E 016°11'4 8.5
2017-Oct-18 19:30N 68°58' E 016°00'4 8.4
2017-Oct-18 19:00N 68°59' E 015°49'4 7.6
2017-Oct-18 18:31N 68°58' E 015°39'4 8.4
2017-Oct-18 18:00N 68°54' E 015°34'4 8.3
2017-Oct-18 17:31N 68°50' E 015°29'4 7.8
2017-Oct-18 17:00N 68°47' E 015°26'4 7.9
2017-Oct-18 16:30N 68°43' E 015°26'4 7.5
2017-Oct-18 16:00N 68°39' E 015°27'3 5.8
2017-Oct-18 15:30N 68°38' E 015°34'0 0.0
2017-Oct-18 15:00N 68°38' E 015°34'0 0.0
2017-Oct-18 14:00N 68°38' E 015°34'0 0.0
2017-Oct-18 13:30N 68°38' E 015°34'0 0.0
2017-Oct-18 13:00N 68°38' E 015°34'0 0.0
2017-Oct-18 12:30N 68°38' E 015°34'0 0.0
2017-Oct-18 12:01N 68°38' E 015°34'0 0.0
2017-Oct-18 11:30N 68°38' E 015°34'0 0.0
2017-Oct-18 11:00N 68°38' E 015°34'0 0.0
2017-Oct-18 10:30N 68°38' E 015°34'0 0.0
2017-Oct-18 10:00N 68°38' E 015°34'0 0.6
2017-Oct-18 09:30N 68°38' E 015°33'4 7.4
2017-Oct-18 09:00N 68°41' E 015°26'510.2
2017-Oct-18 08:30N 68°46' E 015°25'5 9.5
2017-Oct-18 08:01N 68°50' E 015°29'5 9.3
2017-Oct-18 07:30N 68°55' E 015°35'4 8.3
2017-Oct-18 07:00N 68°58' E 015°41'4 9.0
2017-Oct-18 06:30N 68°59' E 015°53'4 8.9
2017-Oct-18 06:00N 68°58' E 016°05'4 8.8
2017-Oct-18 05:30N 68°56' E 016°16'5 9.1
2017-Oct-18 05:00N 68°53' E 016°26'2 4.7
2017-Oct-18 04:30N 68°51' E 016°30'0 0.0
2017-Oct-18 04:00N 68°51' E 016°30'0 0.0
2017-Oct-18 03:30N 68°51' E 016°30'0 0.0
2017-Oct-18 03:00N 68°51' E 016°30'0 0.0
2017-Oct-18 02:30N 68°51' E 016°30'0 0.0
2017-Oct-18 02:00N 68°51' E 016°30'0 0.0
2017-Oct-18 01:30N 68°51' E 016°30'0 0.0
2017-Oct-18 01:00N 68°51' E 016°30'0 0.0
2017-Oct-18 00:29N 68°51' E 016°30'0 0.0
2017-Oct-18 00:00N 68°51' E 016°30'0 0.0
2017-Oct-17 23:30N 68°51' E 016°30'0 0.0
2017-Oct-17 23:00N 68°51' E 016°30'0 0.0
2017-Oct-17 22:30N 68°51' E 016°30'0 0.0
2017-Oct-17 22:00N 68°51' E 016°30'0 0.0
2017-Oct-17 21:31N 68°51' E 016°30'0 0.0
2017-Oct-17 21:00N 68°51' E 016°30'0 0.0
2017-Oct-17 20:30N 68°51' E 016°30'0 0.0
2017-Oct-17 20:00N 68°51' E 016°30'0 0.0
2017-Oct-17 19:30N 68°51' E 016°30'0 0.0
2017-Oct-17 19:00N 68°51' E 016°30'0 0.0
2017-Oct-17 18:30N 68°51' E 016°30'1 1.2
2017-Oct-17 18:00N 68°51' E 016°30'5 8.8
2017-Oct-17 17:30N 68°54' E 016°21'4 8.7
2017-Oct-17 17:00N 68°57' E 016°11'4 8.7
2017-Oct-17 16:30N 68°58' E 015°60'4 8.8
2017-Oct-17 16:00N 68°59' E 015°48'4 7.9
2017-Oct-17 15:31N 68°58' E 015°37'4 8.7
2017-Oct-17 15:00N 68°53' E 015°33'5 8.9
2017-Oct-17 14:30N 68°49' E 015°27'9 8.9
2017-Oct-17 13:30N 68°40' E 015°26'3 6.7
2017-Oct-17 13:00N 68°38' E 015°33'0 0.8
2017-Oct-17 12:30N 68°38' E 015°34'0 0.0
2017-Oct-17 12:00N 68°38' E 015°34'0 0.0
2017-Oct-17 11:30N 68°38' E 015°34'0 0.0
2017-Oct-17 11:00N 68°38' E 015°34'0 0.0
2017-Oct-17 10:30N 68°38' E 015°34'0 0.0
2017-Oct-17 10:00N 68°38' E 015°34'0 0.0
2017-Oct-17 09:30N 68°38' E 015°34'0 0.0
2017-Oct-17 09:00N 68°38' E 015°34'0 0.0
2017-Oct-17 08:30N 68°38' E 015°34'0 0.0
2017-Oct-17 08:01N 68°38' E 015°34'0 0.0
2017-Oct-17 07:30N 68°38' E 015°34'0 0.0
2017-Oct-17 07:00N 68°38' E 015°34'0 0.0
2017-Oct-17 06:30N 68°38' E 015°34'0 0.0
2017-Oct-17 06:00N 68°38' E 015°34'0 0.0
2017-Oct-17 05:30N 68°38' E 015°34'0 0.0
2017-Oct-17 05:01N 68°38' E 015°34'0 0.0
2017-Oct-17 04:30N 68°38' E 015°34'0 0.0
2017-Oct-17 04:00N 68°38' E 015°34'0 0.0
2017-Oct-17 03:31N 68°38' E 015°34'0 0.0
2017-Oct-17 03:00N 68°38' E 015°34'0 0.0
2017-Oct-17 02:30N 68°38' E 015°34'0 0.0
2017-Oct-17 02:00N 68°38' E 015°34'0 0.0
2017-Oct-17 01:30N 68°38' E 015°34'0 0.0
2017-Oct-17 01:00N 68°38' E 015°34'0 0.0
2017-Oct-17 00:31N 68°38' E 015°34'0 0.0
2017-Oct-17 00:01N 68°38' E 015°34'0 0.0
2017-Oct-16 23:30N 68°38' E 015°34'0 0.0
2017-Oct-16 23:00N 68°38' E 015°34'0 0.0
2017-Oct-16 22:30N 68°38' E 015°34'0 0.0
2017-Oct-16 22:00N 68°38' E 015°34'0 0.0
2017-Oct-16 21:30N 68°38' E 015°34'0 0.0
2017-Oct-16 21:00N 68°38' E 015°34'0 0.0
2017-Oct-16 20:30N 68°38' E 015°34'0 0.0
2017-Oct-16 20:00N 68°38' E 015°34'0 0.0
2017-Oct-16 19:30N 68°38' E 015°34'0 0.0
2017-Oct-16 19:00N 68°38' E 015°34'0 0.0
2017-Oct-16 18:30N 68°38' E 015°34'0 0.0
2017-Oct-16 18:00N 68°38' E 015°34'0 0.0
2017-Oct-16 17:30N 68°38' E 015°34'0 0.0
2017-Oct-16 17:01N 68°38' E 015°34'0 0.0
2017-Oct-16 16:30N 68°38' E 015°34'0 0.0
2017-Oct-16 16:00N 68°38' E 015°34'0 0.0
2017-Oct-16 15:30N 68°38' E 015°34'0 0.0
2017-Oct-16 15:00N 68°38' E 015°34'0 0.0
2017-Oct-16 14:00N 68°38' E 015°34'0 0.0
2017-Oct-16 13:30N 68°38' E 015°34'0 0.0
2017-Oct-16 13:01N 68°38' E 015°34'0 0.0
2017-Oct-16 12:30N 68°38' E 015°34'0 0.0
2017-Oct-16 12:00N 68°38' E 015°34'0 0.0
2017-Oct-16 11:30N 68°38' E 015°34'0 0.0
2017-Oct-16 11:00N 68°38' E 015°34'0 0.0
2017-Oct-16 10:30N 68°38' E 015°34'0 0.0
2017-Oct-16 10:01N 68°38' E 015°34'0 0.0
2017-Oct-16 09:30N 68°38' E 015°34'0 0.0
2017-Oct-16 09:00N 68°38' E 015°34'0 0.0
2017-Oct-16 08:31N 68°38' E 015°34'0 0.0
2017-Oct-16 08:00N 68°38' E 015°34'0 0.0
2017-Oct-16 07:30N 68°38' E 015°34'0 0.0
2017-Oct-16 07:00N 68°38' E 015°34'0 0.0
2017-Oct-16 06:31N 68°38' E 015°34'0 0.0
2017-Oct-16 06:00N 68°38' E 015°34'0 0.0
2017-Oct-16 05:30N 68°38' E 015°34'0 0.0
2017-Oct-16 05:01N 68°38' E 015°34'0 0.0
2017-Oct-16 04:30N 68°38' E 015°34'0 0.0
2017-Oct-16 04:01N 68°38' E 015°34'0 0.0
2017-Oct-16 03:29N 68°38' E 015°34'0 0.0
2017-Oct-16 03:01N 68°38' E 015°34'0 0.0
2017-Oct-16 02:30N 68°38' E 015°34'0 0.0
2017-Oct-16 02:01N 68°38' E 015°34'0 0.0
2017-Oct-16 01:30N 68°38' E 015°34'0 0.0
2017-Oct-16 01:00N 68°38' E 015°34'0 0.0
2017-Oct-16 00:31N 68°38' E 015°34'0 0.0
2017-Oct-16 00:00N 68°38' E 015°34'0 0.0
2017-Oct-15 23:30N 68°38' E 015°34'0 0.0
2017-Oct-15 23:00N 68°38' E 015°34'0 0.0
2017-Oct-15 22:30N 68°38' E 015°34'0 0.0
2017-Oct-15 22:00N 68°38' E 015°34'0 0.0
2017-Oct-15 21:31N 68°38' E 015°34'0 0.0
2017-Oct-15 21:00N 68°38' E 015°34'0 0.0
2017-Oct-15 20:30N 68°38' E 015°34'0 0.0
2017-Oct-15 20:00N 68°38' E 015°34'0 0.0
2017-Oct-15 19:30N 68°38' E 015°34'0 0.0
2017-Oct-15 19:00N 68°38' E 015°34'0 0.0
2017-Oct-15 18:30N 68°38' E 015°34'0 0.0
2017-Oct-15 18:00N 68°38' E 015°34'0 0.0
2017-Oct-15 17:30N 68°38' E 015°34'0 0.0
2017-Oct-15 17:00N 68°38' E 015°34'0 0.0
2017-Oct-15 16:30N 68°38' E 015°34'0 0.0
2017-Oct-15 16:01N 68°38' E 015°34'0 0.0
2017-Oct-15 15:30N 68°38' E 015°34'0 0.0
2017-Oct-15 15:00N 68°38' E 015°34'0 0.0
2017-Oct-15 14:00N 68°38' E 015°34'0 0.0
2017-Oct-15 13:29N 68°38' E 015°34'0 0.0
2017-Oct-15 13:00N 68°38' E 015°34'0 0.0
2017-Oct-15 12:31N 68°38' E 015°34'0 0.0
2017-Oct-15 12:00N 68°38' E 015°34'0 0.0
2017-Oct-15 11:30N 68°38' E 015°34'0 0.0
2017-Oct-15 10:59N 68°38' E 015°34'0 0.0
2017-Oct-15 10:30N 68°38' E 015°34'0 0.0
2017-Oct-15 10:00N 68°38' E 015°34'0 0.0
2017-Oct-15 09:30N 68°38' E 015°34'0 0.0
2017-Oct-15 09:00N 68°38' E 015°34'0 0.0
2017-Oct-15 08:30N 68°38' E 015°34'0 0.0
2017-Oct-15 07:59N 68°38' E 015°34'0 0.0
2017-Oct-15 07:30N 68°38' E 015°34'0 0.0
2017-Oct-15 07:00N 68°38' E 015°34'0 0.0
2017-Oct-15 06:30N 68°38' E 015°34'0 0.0
2017-Oct-15 06:00N 68°38' E 015°34'0 0.0
2017-Oct-15 05:30N 68°38' E 015°34'0 0.0
2017-Oct-15 05:00N 68°38' E 015°34'0 0.0
2017-Oct-15 04:30N 68°38' E 015°34'0 0.0
2017-Oct-15 04:00N 68°38' E 015°34'0 0.0
2017-Oct-15 03:30N 68°38' E 015°34'0 0.0
2017-Oct-15 03:01N 68°38' E 015°34'0 0.0
2017-Oct-15 02:30N 68°38' E 015°34'0 0.0
2017-Oct-15 02:00N 68°38' E 015°34'0 0.0
2017-Oct-15 01:30N 68°38' E 015°34'0 0.0
2017-Oct-15 01:01N 68°38' E 015°34'0 0.0
2017-Oct-15 00:31N 68°38' E 015°34'0 0.0
2017-Oct-15 00:00N 68°38' E 015°34'0 0.0
2017-Oct-14 23:30N 68°38' E 015°34'0 0.0
2017-Oct-14 23:00N 68°38' E 015°34'0 0.0
2017-Oct-14 22:30N 68°38' E 015°34'0 0.0
2017-Oct-14 22:00N 68°38' E 015°34'0 0.0
2017-Oct-14 21:30N 68°38' E 015°34'0 0.0
2017-Oct-14 21:00N 68°38' E 015°34'0 0.0
2017-Oct-14 20:30N 68°38' E 015°34'0 0.0
2017-Oct-14 20:01N 68°38' E 015°34'0 0.0
2017-Oct-14 19:30N 68°38' E 015°34'0 0.0
2017-Oct-14 19:00N 68°38' E 015°34'0 0.0
2017-Oct-14 18:30N 68°38' E 015°34'0 0.0
2017-Oct-14 18:00N 68°38' E 015°34'0 0.0
2017-Oct-14 17:30N 68°38' E 015°34'0 0.0
2017-Oct-14 16:59N 68°38' E 015°34'0 0.0
2017-Oct-14 16:30N 68°38' E 015°34'0 0.0
2017-Oct-14 16:00N 68°38' E 015°34'0 0.0
2017-Oct-14 15:30N 68°38' E 015°34'0 0.0
2017-Oct-14 15:00N 68°38' E 015°34'0 0.0
2017-Oct-14 14:30N 68°38' E 015°34'0 0.0
2017-Oct-14 14:00N 68°38' E 015°34'0 0.0
2017-Oct-14 13:30N 68°38' E 015°34'0 0.5
2017-Oct-14 13:00N 68°38' E 015°34'4 8.0
2017-Oct-14 12:30N 68°37' E 015°23'2 4.3
2017-Oct-14 12:00N 68°36' E 015°20'0 0.0
2017-Oct-14 11:30N 68°36' E 015°20'0 0.0
2017-Oct-14 11:00N 68°36' E 015°20'0 0.1
2017-Oct-14 10:30N 68°36' E 015°20'4 8.6
2017-Oct-14 10:00N 68°38' E 015°30'2 3.2
2017-Oct-14 09:30N 68°38' E 015°34'0 0.0
2017-Oct-14 09:00N 68°38' E 015°34'0 0.0
2017-Oct-14 08:30N 68°38' E 015°34'0 0.0
2017-Oct-14 07:59N 68°38' E 015°34'0 0.0
2017-Oct-14 07:30N 68°38' E 015°34'0 0.0
2017-Oct-14 07:00N 68°38' E 015°34'0 0.0
2017-Oct-14 06:30N 68°38' E 015°34'0 0.0
2017-Oct-14 06:00N 68°38' E 015°34'0 0.0
2017-Oct-14 05:30N 68°38' E 015°34'0 0.0
2017-Oct-14 05:00N 68°38' E 015°34'0 0.0
2017-Oct-14 04:30N 68°38' E 015°34'0 0.0
2017-Oct-14 04:00N 68°38' E 015°34'0 0.0
2017-Oct-14 03:30N 68°38' E 015°34'0 0.0
2017-Oct-14 03:00N 68°38' E 015°34'0 0.0
2017-Oct-14 02:30N 68°38' E 015°34'0 0.0
2017-Oct-14 02:00N 68°38' E 015°34'0 0.0
2017-Oct-14 01:30N 68°38' E 015°34'3 5.4
2017-Oct-14 01:00N 68°38' E 015°27'4 7.1
2017-Oct-14 00:30N 68°36' E 015°20'0 0.1
2017-Oct-14 00:00N 68°36' E 015°20'0 0.0
2017-Oct-13 23:30N 68°36' E 015°20'0 0.0
2017-Oct-13 23:00N 68°36' E 015°20'3 5.6
2017-Oct-13 22:30N 68°38' E 015°25'3 6.7
2017-Oct-13 22:00N 68°38' E 015°34'0 0.0
2017-Oct-13 21:30N 68°38' E 015°34'0 0.0
2017-Oct-13 21:00N 68°38' E 015°34'0 0.0
2017-Oct-13 20:30N 68°38' E 015°34'0 0.0
2017-Oct-13 20:00N 68°38' E 015°34'0 0.0
2017-Oct-13 19:30N 68°38' E 015°34'0 0.0
2017-Oct-13 19:00N 68°38' E 015°34'0 0.0
2017-Oct-13 18:29N 68°38' E 015°34'0 0.0
2017-Oct-13 18:00N 68°38' E 015°34'0 0.0
2017-Oct-13 17:30N 68°38' E 015°34'0 0.0
2017-Oct-13 17:00N 68°38' E 015°34'0 0.0
2017-Oct-13 16:30N 68°38' E 015°34'0 0.0
2017-Oct-13 16:00N 68°38' E 015°34'0 0.0
2017-Oct-13 15:30N 68°38' E 015°34'1 2.6
2017-Oct-13 15:00N 68°38' E 015°31'4 7.6
2017-Oct-13 14:30N 68°37' E 015°21'1 2.1
2017-Oct-13 14:00N 68°36' E 015°20'0 0.0
2017-Oct-13 13:30N 68°36' E 015°20'0 0.0
2017-Oct-13 13:00N 68°36' E 015°20'0 0.1
2017-Oct-13 12:30N 68°36' E 015°20'4 8.4
2017-Oct-13 12:00N 68°39' E 015°24'4 8.9
2017-Oct-13 11:29N 68°44' E 015°25'4 9.0
2017-Oct-13 11:00N 68°48' E 015°27'4 9.1
2017-Oct-13 10:30N 68°52' E 015°31'5 9.2
2017-Oct-13 10:00N 68°57' E 015°36'4 7.9
2017-Oct-13 09:30N 68°59' E 015°46'4 9.2
2017-Oct-13 09:00N 68°58' E 015°59'5 9.6
2017-Oct-13 08:29N 68°57' E 016°12'4 9.2
2017-Oct-13 08:00N 68°54' E 016°22'4 0.3
2017-Oct-12 16:24N 68°51' E 016°30'0 1.2
2017-Oct-12 16:00N 68°51' E 016°30'4 8.5
2017-Oct-12 15:30N 68°54' E 016°21'4 8.1
2017-Oct-12 15:00N 68°57' E 016°12'4 8.4
2017-Oct-12 14:30N 68°58' E 016°01'4 8.1
2017-Oct-12 14:00N 68°59' E 015°50'4 8.2
2017-Oct-12 13:30N 68°58' E 015°39'4 8.3
2017-Oct-12 13:00N 68°54' E 015°35'4 8.5
2017-Oct-12 12:30N 68°51' E 015°29'4 8.5
2017-Oct-12 12:00N 68°46' E 015°26'4 8.7
2017-Oct-12 11:30N 68°42' E 015°26'4 8.2
2017-Oct-12 11:00N 68°38' E 015°28'2 4.1
2017-Oct-12 10:30N 68°38' E 015°34'0 0.0
2017-Oct-12 10:00N 68°38' E 015°34'0 0.0
2017-Oct-12 09:30N 68°38' E 015°34'0 0.0
2017-Oct-12 09:00N 68°38' E 015°34'0 0.0
2017-Oct-12 08:29N 68°38' E 015°34'0 0.0
2017-Oct-12 08:00N 68°38' E 015°34'0 0.0
2017-Oct-12 07:30N 68°38' E 015°34'0 0.0
2017-Oct-12 06:59N 68°38' E 015°34'0 0.0
2017-Oct-12 06:30N 68°38' E 015°34'0 0.0
2017-Oct-12 06:00N 68°38' E 015°34'0 0.0
2017-Oct-12 05:30N 68°38' E 015°34'1 1.6
2017-Oct-12 05:00N 68°38' E 015°32'3 6.7
2017-Oct-12 04:30N 68°41' E 015°26'3 6.2
2017-Oct-12 04:00N 68°44' E 015°25'3 6.3
2017-Oct-12 03:30N 68°47' E 015°26'3 6.2
2017-Oct-12 03:00N 68°50' E 015°28'3 6.2
2017-Oct-12 02:30N 68°53' E 015°32'3 6.2
2017-Oct-12 02:00N 68°56' E 015°35'3 6.3
2017-Oct-12 01:30N 68°58' E 015°40'4 7.1
2017-Oct-12 01:00N 68°59' E 015°50'3 6.6
2017-Oct-12 00:30N 68°57' E 015°57'4 8.0
2017-Oct-12 00:00N 68°53' E 016°01'4 8.1
2017-Oct-11 23:30N 68°49' E 016°04'4 7.0
2017-Oct-11 23:00N 68°46' E 016°10'0 0.0
2017-Oct-11 22:30N 68°46' E 016°10'0 0.0
2017-Oct-11 21:59N 68°46' E 016°10'0 0.0
2017-Oct-11 21:30N 68°46' E 016°10'0 0.0
2017-Oct-11 21:01N 68°46' E 016°10'0 0.0
2017-Oct-11 20:29N 68°46' E 016°10'0 0.0
2017-Oct-11 20:00N 68°46' E 016°10'0 0.0
2017-Oct-11 19:31N 68°46' E 016°10'0 0.0
2017-Oct-11 19:00N 68°46' E 016°10'0 0.0
2017-Oct-11 18:30N 68°46' E 016°10'0 0.0
2017-Oct-11 18:00N 68°46' E 016°10'0 0.0
2017-Oct-11 17:30N 68°46' E 016°10'0 0.0
2017-Oct-11 17:00N 68°46' E 016°10'0 0.0
2017-Oct-11 00:00N 68°46' E 016°10'0 0.0
2017-Oct-10 23:30N 68°46' E 016°10'0 0.0
2017-Oct-10 23:00N 68°46' E 016°10'0 0.0
2017-Oct-10 22:30N 68°46' E 016°10'0 0.0
2017-Oct-10 22:00N 68°46' E 016°10'0 0.0
2017-Oct-10 21:30N 68°46' E 016°10'0 0.0
2017-Oct-10 21:00N 68°46' E 016°10'0 0.0
2017-Oct-10 20:30N 68°46' E 016°10'0 0.0
2017-Oct-10 20:00N 68°46' E 016°10'0 0.0
2017-Oct-10 19:30N 68°46' E 016°10'0 0.0
2017-Oct-10 19:00N 68°46' E 016°10'2 3.1
2017-Oct-10 18:30N 68°47' E 016°07'4 8.5
2017-Oct-10 18:00N 68°51' E 016°03'4 8.7
2017-Oct-10 17:30N 68°55' E 015°59'4 8.3
2017-Oct-10 17:00N 68°59' E 015°54'4 8.3
2017-Oct-10 16:30N 68°59' E 015°42'4 7.7
2017-Oct-10 15:59N 68°56' E 015°35'4 8.5
2017-Oct-10 15:30N 68°52' E 015°30'4 8.7
2017-Oct-10 15:00N 68°48' E 015°26'9 9.1
2017-Oct-10 14:00N 68°39' E 015°27'  
Track history (hours):
 
Tides and Currents Weather Stations Pressure Air Temp Water Temp Dewpoint Dewpoint Depression Visibility Wind Speed Wind Dir Waves Ship Positions

Trine Charlotte

Last reported at 2017-Oct-20 14:00 UTC. Time now 2017-Oct-20 14:54 UTC.
Position N 69°01' E 015°15'.

Length 66 m; draft 4.4 m.

Type: Wing in ground effect craft. MMSI: 257233000.

Date/timePositionNaut miles runAvg speedWind from/ knotsBaromVisibWave heightAir tempDewpointWater temp
2017-Oct-20 14:00N 69°01' E 015°15'4 8.0
2017-Oct-20 13:30N 68°58' E 015°22'5 9.5
2017-Oct-20 13:00N 68°53' E 015°25'3 6.2
2017-Oct-20 12:30N 68°54' E 015°33'5 9.3
2017-Oct-20 12:00N 68°58' E 015°38'5 9.6
2017-Oct-20 11:30N 68°59' E 015°51'5 9.4
2017-Oct-20 11:00N 68°58' E 016°04'5 9.7
2017-Oct-20 10:30N 68°56' E 016°17'5 9.7
2017-Oct-20 10:00N 68°53' E 016°26'2 4.1
2017-Oct-20 09:30N 68°51' E 016°30'0 0.0
2017-Oct-20 09:00N 68°51' E 016°30'0 0.0
2017-Oct-20 08:30N 68°51' E 016°30'0 0.0
2017-Oct-20 08:00N 68°51' E 016°30'0 0.0
2017-Oct-20 07:30N 68°51' E 016°30'0 0.0
2017-Oct-20 07:00N 68°51' E 016°30'0 0.0
2017-Oct-20 06:31N 68°51' E 016°30'0 0.0
2017-Oct-20 06:00N 68°51' E 016°30'0 0.0
2017-Oct-20 05:30N 68°51' E 016°30'0 0.0
2017-Oct-20 05:00N 68°51' E 016°30'0 0.0
2017-Oct-20 04:30N 68°51' E 016°30'0 0.0
2017-Oct-20 04:00N 68°51' E 016°30'0 0.0
2017-Oct-20 03:30N 68°51' E 016°30'0 0.0
2017-Oct-20 03:00N 68°51' E 016°30'0 0.0
2017-Oct-20 02:30N 68°51' E 016°30'0 0.0
2017-Oct-20 02:00N 68°51' E 016°30'0 0.0
2017-Oct-20 01:30N 68°51' E 016°30'0 0.0
2017-Oct-20 01:00N 68°51' E 016°30'0 0.0
2017-Oct-20 00:30N 68°51' E 016°30'0 0.0
2017-Oct-20 00:00N 68°51' E 016°30'0 0.0
2017-Oct-19 23:30N 68°51' E 016°30'0 0.0
2017-Oct-19 23:00N 68°51' E 016°30'0 0.0
2017-Oct-19 22:30N 68°51' E 016°30'0 0.0
2017-Oct-19 22:00N 68°51' E 016°30'0 0.0
2017-Oct-19 21:31N 68°51' E 016°30'0 0.0
2017-Oct-19 21:00N 68°51' E 016°30'0 0.0
2017-Oct-19 20:30N 68°51' E 016°30'0 0.0
2017-Oct-19 20:00N 68°51' E 016°30'0 0.0
2017-Oct-19 19:30N 68°51' E 016°30'0 0.0
2017-Oct-19 19:00N 68°51' E 016°30'0 0.0
2017-Oct-19 18:30N 68°51' E 016°30'0 0.0
2017-Oct-19 18:00N 68°51' E 016°30'0 0.0
2017-Oct-19 17:31N 68°51' E 016°30'0 0.0
2017-Oct-19 17:00N 68°51' E 016°30'0 0.0
2017-Oct-19 16:30N 68°51' E 016°30'0 0.0
2017-Oct-19 16:01N 68°51' E 016°30'0 0.0
2017-Oct-19 15:31N 68°51' E 016°30'0 0.0
2017-Oct-19 15:01N 68°51' E 016°30'0 0.0
2017-Oct-19 14:30N 68°51' E 016°30'0 0.0
2017-Oct-19 14:00N 68°51' E 016°30'0 0.0
2017-Oct-19 13:30N 68°51' E 016°30'0 0.0
2017-Oct-19 13:00N 68°51' E 016°30'0 0.0
2017-Oct-19 12:30N 68°51' E 016°30'0 0.0
2017-Oct-19 12:00N 68°51' E 016°30'0 0.0
2017-Oct-19 11:30N 68°51' E 016°30'0 0.0
2017-Oct-19 11:00N 68°51' E 016°30'0 0.0
2017-Oct-19 10:30N 68°51' E 016°30'0 0.0
2017-Oct-19 10:01N 68°51' E 016°30'0 0.0
2017-Oct-19 09:30N 68°51' E 016°30'0 0.0
2017-Oct-19 09:00N 68°51' E 016°30'0 0.0
2017-Oct-19 08:30N 68°51' E 016°30'0 0.0
2017-Oct-19 08:01N 68°51' E 016°30'0 0.0
2017-Oct-19 07:30N 68°51' E 016°30'0 0.0
2017-Oct-19 07:00N 68°51' E 016°30'0 0.0
2017-Oct-19 06:31N 68°51' E 016°30'0 0.0
2017-Oct-19 06:00N 68°51' E 016°30'0 0.0
2017-Oct-19 05:30N 68°51' E 016°30'0 0.0
2017-Oct-19 05:00N 68°51' E 016°30'0 0.0
2017-Oct-19 04:30N 68°51' E 016°30'0 0.0
2017-Oct-19 04:00N 68°51' E 016°30'0 0.0
2017-Oct-19 03:30N 68°51' E 016°30'0 0.0
2017-Oct-19 03:01N 68°51' E 016°30'0 0.0
2017-Oct-19 02:31N 68°51' E 016°30'0 0.0
2017-Oct-19 02:00N 68°51' E 016°30'0 0.0
2017-Oct-19 01:31N 68°51' E 016°30'0 0.0
2017-Oct-19 01:00N 68°51' E 016°30'0 0.0
2017-Oct-19 00:30N 68°51' E 016°30'0 0.0
2017-Oct-19 00:00N 68°51' E 016°30'0 0.0
2017-Oct-18 23:30N 68°51' E 016°30'0 0.0
2017-Oct-18 23:01N 68°51' E 016°30'0 0.0
2017-Oct-18 22:30N 68°51' E 016°30'0 0.0
2017-Oct-18 22:00N 68°51' E 016°30'0 0.0
2017-Oct-18 21:31N 68°51' E 016°30'0 0.7
2017-Oct-18 21:00N 68°51' E 016°30'4 8.4
2017-Oct-18 20:30N 68°54' E 016°22'5 9.1
2017-Oct-18 20:00N 68°57' E 016°11'4 8.5
2017-Oct-18 19:30N 68°58' E 016°00'4 8.4
2017-Oct-18 19:00N 68°59' E 015°49'4 7.6
2017-Oct-18 18:31N 68°58' E 015°39'4 8.4
2017-Oct-18 18:00N 68°54' E 015°34'4 8.3
2017-Oct-18 17:31N 68°50' E 015°29'4 7.8
2017-Oct-18 17:00N 68°47' E 015°26'4 7.9
2017-Oct-18 16:30N 68°43' E 015°26'4 7.5
2017-Oct-18 16:00N 68°39' E 015°27'3 5.8
2017-Oct-18 15:30N 68°38' E 015°34'0 0.0
2017-Oct-18 15:00N 68°38' E 015°34'0 0.0
2017-Oct-18 14:00N 68°38' E 015°34'0 0.0
2017-Oct-18 13:30N 68°38' E 015°34'0 0.0
2017-Oct-18 13:00N 68°38' E 015°34'0 0.0
2017-Oct-18 12:30N 68°38' E 015°34'0 0.0
2017-Oct-18 12:01N 68°38' E 015°34'0 0.0
2017-Oct-18 11:30N 68°38' E 015°34'0 0.0
2017-Oct-18 11:00N 68°38' E 015°34'0 0.0
2017-Oct-18 10:30N 68°38' E 015°34'0 0.0
2017-Oct-18 10:00N 68°38' E 015°34'0 0.6
2017-Oct-18 09:30N 68°38' E 015°33'4 7.4
2017-Oct-18 09:00N 68°41' E 015°26'510.2
2017-Oct-18 08:30N 68°46' E 015°25'5 9.5
2017-Oct-18 08:01N 68°50' E 015°29'5 9.3
2017-Oct-18 07:30N 68°55' E 015°35'4 8.3
2017-Oct-18 07:00N 68°58' E 015°41'4 9.0
2017-Oct-18 06:30N 68°59' E 015°53'4 8.9
2017-Oct-18 06:00N 68°58' E 016°05'4 8.8
2017-Oct-18 05:30N 68°56' E 016°16'5 9.1
2017-Oct-18 05:00N 68°53' E 016°26'2 4.7
2017-Oct-18 04:30N 68°51' E 016°30'0 0.0
2017-Oct-18 04:00N 68°51' E 016°30'0 0.0
2017-Oct-18 03:30N 68°51' E 016°30'0 0.0
2017-Oct-18 03:00N 68°51' E 016°30'0 0.0
2017-Oct-18 02:30N 68°51' E 016°30'0 0.0
2017-Oct-18 02:00N 68°51' E 016°30'0 0.0
2017-Oct-18 01:30N 68°51' E 016°30'0 0.0
2017-Oct-18 01:00N 68°51' E 016°30'0 0.0
2017-Oct-18 00:29N 68°51' E 016°30'0 0.0
2017-Oct-18 00:00N 68°51' E 016°30'0 0.0
2017-Oct-17 23:30N 68°51' E 016°30'0 0.0
2017-Oct-17 23:00N 68°51' E 016°30'0 0.0
2017-Oct-17 22:30N 68°51' E 016°30'0 0.0
2017-Oct-17 22:00N 68°51' E 016°30'0 0.0
2017-Oct-17 21:31N 68°51' E 016°30'0 0.0
2017-Oct-17 21:00N 68°51' E 016°30'0 0.0
2017-Oct-17 20:30N 68°51' E 016°30'0 0.0
2017-Oct-17 20:00N 68°51' E 016°30'0 0.0
2017-Oct-17 19:30N 68°51' E 016°30'0 0.0
2017-Oct-17 19:00N 68°51' E 016°30'0 0.0
2017-Oct-17 18:30N 68°51' E 016°30'1 1.2
2017-Oct-17 18:00N 68°51' E 016°30'5 8.8
2017-Oct-17 17:30N 68°54' E 016°21'4 8.7
2017-Oct-17 17:00N 68°57' E 016°11'4 8.7
2017-Oct-17 16:30N 68°58' E 015°60'4 8.8
2017-Oct-17 16:00N 68°59' E 015°48'4 7.9
2017-Oct-17 15:31N 68°58' E 015°37'4 8.7
2017-Oct-17 15:00N 68°53' E 015°33'5 8.9
2017-Oct-17 14:30N 68°49' E 015°27'9 8.9
2017-Oct-17 13:30N 68°40' E 015°26'3 6.7
2017-Oct-17 13:00N 68°38' E 015°33'0 0.8
2017-Oct-17 12:30N 68°38' E 015°34'0 0.0
2017-Oct-17 12:00N 68°38' E 015°34'0 0.0
2017-Oct-17 11:30N 68°38' E 015°34'0 0.0
2017-Oct-17 11:00N 68°38' E 015°34'0 0.0
2017-Oct-17 10:30N 68°38' E 015°34'0 0.0
2017-Oct-17 10:00N 68°38' E 015°34'0 0.0
2017-Oct-17 09:30N 68°38' E 015°34'0 0.0
2017-Oct-17 09:00N 68°38' E 015°34'0 0.0
2017-Oct-17 08:30N 68°38' E 015°34'0 0.0
2017-Oct-17 08:01N 68°38' E 015°34'0 0.0
2017-Oct-17 07:30N 68°38' E 015°34'0 0.0
2017-Oct-17 07:00N 68°38' E 015°34'0 0.0
2017-Oct-17 06:30N 68°38' E 015°34'0 0.0
2017-Oct-17 06:00N 68°38' E 015°34'0 0.0
2017-Oct-17 05:30N 68°38' E 015°34'0 0.0
2017-Oct-17 05:01N 68°38' E 015°34'0 0.0
2017-Oct-17 04:30N 68°38' E 015°34'0 0.0
2017-Oct-17 04:00N 68°38' E 015°34'0 0.0
2017-Oct-17 03:31N 68°38' E 015°34'0 0.0
2017-Oct-17 03:00N 68°38' E 015°34'0 0.0
2017-Oct-17 02:30N 68°38' E 015°34'0 0.0
2017-Oct-17 02:00N 68°38' E 015°34'0 0.0
2017-Oct-17 01:30N 68°38' E 015°34'0 0.0
2017-Oct-17 01:00N 68°38' E 015°34'0 0.0
2017-Oct-17 00:31N 68°38' E 015°34'0 0.0
2017-Oct-17 00:01N 68°38' E 015°34'0 0.0
2017-Oct-16 23:30N 68°38' E 015°34'0 0.0
2017-Oct-16 23:00N 68°38' E 015°34'0 0.0
2017-Oct-16 22:30N 68°38' E 015°34'0 0.0
2017-Oct-16 22:00N 68°38' E 015°34'0 0.0
2017-Oct-16 21:30N 68°38' E 015°34'0 0.0
2017-Oct-16 21:00N 68°38' E 015°34'0 0.0
2017-Oct-16 20:30N 68°38' E 015°34'0 0.0
2017-Oct-16 20:00N 68°38' E 015°34'0 0.0
2017-Oct-16 19:30N 68°38' E 015°34'0 0.0
2017-Oct-16 19:00N 68°38' E 015°34'0 0.0
2017-Oct-16 18:30N 68°38' E 015°34'0 0.0
2017-Oct-16 18:00N 68°38' E 015°34'0 0.0
2017-Oct-16 17:30N 68°38' E 015°34'0 0.0
2017-Oct-16 17:01N 68°38' E 015°34'0 0.0
2017-Oct-16 16:30N 68°38' E 015°34'0 0.0
2017-Oct-16 16:00N 68°38' E 015°34'0 0.0
2017-Oct-16 15:30N 68°38' E 015°34'0 0.0
2017-Oct-16 15:00N 68°38' E 015°34'0 0.0
2017-Oct-16 14:00N 68°38' E 015°34'0 0.0
2017-Oct-16 13:30N 68°38' E 015°34'0 0.0
2017-Oct-16 13:01N 68°38' E 015°34'0 0.0
2017-Oct-16 12:30N 68°38' E 015°34'0 0.0
2017-Oct-16 12:00N 68°38' E 015°34'0 0.0
2017-Oct-16 11:30N 68°38' E 015°34'0 0.0
2017-Oct-16 11:00N 68°38' E 015°34'0 0.0
2017-Oct-16 10:30N 68°38' E 015°34'0 0.0
2017-Oct-16 10:01N 68°38' E 015°34'0 0.0
2017-Oct-16 09:30N 68°38' E 015°34'0 0.0
2017-Oct-16 09:00N 68°38' E 015°34'0 0.0
2017-Oct-16 08:31N 68°38' E 015°34'0 0.0
2017-Oct-16 08:00N 68°38' E 015°34'0 0.0
2017-Oct-16 07:30N 68°38' E 015°34'0 0.0
2017-Oct-16 07:00N 68°38' E 015°34'0 0.0
2017-Oct-16 06:31N 68°38' E 015°34'0 0.0
2017-Oct-16 06:00N 68°38' E 015°34'0 0.0
2017-Oct-16 05:30N 68°38' E 015°34'0 0.0
2017-Oct-16 05:01N 68°38' E 015°34'0 0.0
2017-Oct-16 04:30N 68°38' E 015°34'0 0.0
2017-Oct-16 04:01N 68°38' E 015°34'0 0.0
2017-Oct-16 03:29N 68°38' E 015°34'0 0.0
2017-Oct-16 03:01N 68°38' E 015°34'0 0.0
2017-Oct-16 02:30N 68°38' E 015°34'0 0.0
2017-Oct-16 02:01N 68°38' E 015°34'0 0.0
2017-Oct-16 01:30N 68°38' E 015°34'0 0.0
2017-Oct-16 01:00N 68°38' E 015°34'0 0.0
2017-Oct-16 00:31N 68°38' E 015°34'0 0.0
2017-Oct-16 00:00N 68°38' E 015°34'0 0.0
2017-Oct-15 23:30N 68°38' E 015°34'0 0.0
2017-Oct-15 23:00N 68°38' E 015°34'0 0.0
2017-Oct-15 22:30N 68°38' E 015°34'0 0.0
2017-Oct-15 22:00N 68°38' E 015°34'0 0.0
2017-Oct-15 21:31N 68°38' E 015°34'0 0.0
2017-Oct-15 21:00N 68°38' E 015°34'0 0.0
2017-Oct-15 20:30N 68°38' E 015°34'0 0.0
2017-Oct-15 20:00N 68°38' E 015°34'0 0.0
2017-Oct-15 19:30N 68°38' E 015°34'0 0.0
2017-Oct-15 19:00N 68°38' E 015°34'0 0.0
2017-Oct-15 18:30N 68°38' E 015°34'0 0.0
2017-Oct-15 18:00N 68°38' E 015°34'0 0.0
2017-Oct-15 17:30N 68°38' E 015°34'0 0.0
2017-Oct-15 17:00N 68°38' E 015°34'0 0.0
2017-Oct-15 16:30N 68°38' E 015°34'0 0.0
2017-Oct-15 16:01N 68°38' E 015°34'0 0.0
2017-Oct-15 15:30N 68°38' E 015°34'0 0.0
2017-Oct-15 15:00N 68°38' E 015°34'0 0.0
2017-Oct-15 14:00N 68°38' E 015°34'0 0.0
2017-Oct-15 13:29N 68°38' E 015°34'0 0.0
2017-Oct-15 13:00N 68°38' E 015°34'0 0.0
2017-Oct-15 12:31N 68°38' E 015°34'0 0.0
2017-Oct-15 12:00N 68°38' E 015°34'0 0.0
2017-Oct-15 11:30N 68°38' E 015°34'0 0.0
2017-Oct-15 10:59N 68°38' E 015°34'0 0.0
2017-Oct-15 10:30N 68°38' E 015°34'0 0.0
2017-Oct-15 10:00N 68°38' E 015°34'0 0.0
2017-Oct-15 09:30N 68°38' E 015°34'0 0.0
2017-Oct-15 09:00N 68°38' E 015°34'0 0.0
2017-Oct-15 08:30N 68°38' E 015°34'0 0.0
2017-Oct-15 07:59N 68°38' E 015°34'0 0.0
2017-Oct-15 07:30N 68°38' E 015°34'0 0.0
2017-Oct-15 07:00N 68°38' E 015°34'0 0.0
2017-Oct-15 06:30N 68°38' E 015°34'0 0.0
2017-Oct-15 06:00N 68°38' E 015°34'0 0.0
2017-Oct-15 05:30N 68°38' E 015°34'0 0.0
2017-Oct-15 05:00N 68°38' E 015°34'0 0.0
2017-Oct-15 04:30N 68°38' E 015°34'0 0.0
2017-Oct-15 04:00N 68°38' E 015°34'0 0.0
2017-Oct-15 03:30N 68°38' E 015°34'0 0.0
2017-Oct-15 03:01N 68°38' E 015°34'0 0.0
2017-Oct-15 02:30N 68°38' E 015°34'0 0.0
2017-Oct-15 02:00N 68°38' E 015°34'0 0.0
2017-Oct-15 01:30N 68°38' E 015°34'0 0.0
2017-Oct-15 01:01N 68°38' E 015°34'0 0.0
2017-Oct-15 00:31N 68°38' E 015°34'0 0.0
2017-Oct-15 00:00N 68°38' E 015°34'0 0.0
2017-Oct-14 23:30N 68°38' E 015°34'0 0.0
2017-Oct-14 23:00N 68°38' E 015°34'0 0.0
2017-Oct-14 22:30N 68°38' E 015°34'0 0.0
2017-Oct-14 22:00N 68°38' E 015°34'0 0.0
2017-Oct-14 21:30N 68°38' E 015°34'0 0.0
2017-Oct-14 21:00N 68°38' E 015°34'0 0.0
2017-Oct-14 20:30N 68°38' E 015°34'0 0.0
2017-Oct-14 20:01N 68°38' E 015°34'0 0.0
2017-Oct-14 19:30N 68°38' E 015°34'0 0.0
2017-Oct-14 19:00N 68°38' E 015°34'0 0.0
2017-Oct-14 18:30N 68°38' E 015°34'0 0.0
2017-Oct-14 18:00N 68°38' E 015°34'0 0.0
2017-Oct-14 17:30N 68°38' E 015°34'0 0.0
2017-Oct-14 16:59N 68°38' E 015°34'0 0.0
2017-Oct-14 16:30N 68°38' E 015°34'0 0.0
2017-Oct-14 16:00N 68°38' E 015°34'0 0.0
2017-Oct-14 15:30N 68°38' E 015°34'0 0.0
2017-Oct-14 15:00N 68°38' E 015°34'0 0.0
2017-Oct-14 14:30N 68°38' E 015°34'0 0.0
2017-Oct-14 14:00N 68°38' E 015°34'0 0.0
2017-Oct-14 13:30N 68°38' E 015°34'0 0.5
2017-Oct-14 13:00N 68°38' E 015°34'4 8.0
2017-Oct-14 12:30N 68°37' E 015°23'2 4.3
2017-Oct-14 12:00N 68°36' E 015°20'0 0.0
2017-Oct-14 11:30N 68°36' E 015°20'0 0.0
2017-Oct-14 11:00N 68°36' E 015°20'0 0.1
2017-Oct-14 10:30N 68°36' E 015°20'4 8.6
2017-Oct-14 10:00N 68°38' E 015°30'2 3.2
2017-Oct-14 09:30N 68°38' E 015°34'0 0.0
2017-Oct-14 09:00N 68°38' E 015°34'0 0.0
2017-Oct-14 08:30N 68°38' E 015°34'0 0.0
2017-Oct-14 07:59N 68°38' E 015°34'0 0.0
2017-Oct-14 07:30N 68°38' E 015°34'0 0.0
2017-Oct-14 07:00N 68°38' E 015°34'0 0.0
2017-Oct-14 06:30N 68°38' E 015°34'0 0.0
2017-Oct-14 06:00N 68°38' E 015°34'0 0.0
2017-Oct-14 05:30N 68°38' E 015°34'0 0.0
2017-Oct-14 05:00N 68°38' E 015°34'0 0.0
2017-Oct-14 04:30N 68°38' E 015°34'0 0.0
2017-Oct-14 04:00N 68°38' E 015°34'0 0.0
2017-Oct-14 03:30N 68°38' E 015°34'0 0.0
2017-Oct-14 03:00N 68°38' E 015°34'0 0.0
2017-Oct-14 02:30N 68°38' E 015°34'0 0.0
2017-Oct-14 02:00N 68°38' E 015°34'0 0.0
2017-Oct-14 01:30N 68°38' E 015°34'3 5.4
2017-Oct-14 01:00N 68°38' E 015°27'4 7.1
2017-Oct-14 00:30N 68°36' E 015°20'0 0.1
2017-Oct-14 00:00N 68°36' E 015°20'0 0.0
2017-Oct-13 23:30N 68°36' E 015°20'0 0.0
2017-Oct-13 23:00N 68°36' E 015°20'3 5.6
2017-Oct-13 22:30N 68°38' E 015°25'3 6.7
2017-Oct-13 22:00N 68°38' E 015°34'0 0.0
2017-Oct-13 21:30N 68°38' E 015°34'0 0.0
2017-Oct-13 21:00N 68°38' E 015°34'0 0.0
2017-Oct-13 20:30N 68°38' E 015°34'0 0.0
2017-Oct-13 20:00N 68°38' E 015°34'0 0.0
2017-Oct-13 19:30N 68°38' E 015°34'0 0.0
2017-Oct-13 19:00N 68°38' E 015°34'0 0.0
2017-Oct-13 18:29N 68°38' E 015°34'0 0.0
2017-Oct-13 18:00N 68°38' E 015°34'0 0.0
2017-Oct-13 17:30N 68°38' E 015°34'0 0.0
2017-Oct-13 17:00N 68°38' E 015°34'0 0.0
2017-Oct-13 16:30N 68°38' E 015°34'0 0.0
2017-Oct-13 16:00N 68°38' E 015°34'0 0.0
2017-Oct-13 15:30N 68°38' E 015°34'1 2.6
2017-Oct-13 15:00N 68°38' E 015°31'4 7.6
2017-Oct-13 14:30N 68°37' E 015°21'1 2.1
2017-Oct-13 14:00N 68°36' E 015°20'0 0.0
2017-Oct-13 13:30N 68°36' E 015°20'0 0.0
2017-Oct-13 13:00N 68°36' E 015°20'0 0.1
2017-Oct-13 12:30N 68°36' E 015°20'4 8.4
2017-Oct-13 12:00N 68°39' E 015°24'4 8.9
2017-Oct-13 11:29N 68°44' E 015°25'4 9.0
2017-Oct-13 11:00N 68°48' E 015°27'4 9.1
2017-Oct-13 10:30N 68°52' E 015°31'5 9.2
2017-Oct-13 10:00N 68°57' E 015°36'4 7.9
2017-Oct-13 09:30N 68°59' E 015°46'4 9.2
2017-Oct-13 09:00N 68°58' E 015°59'5 9.6
2017-Oct-13 08:29N 68°57' E 016°12'4 9.2
2017-Oct-13 08:00N 68°54' E 016°22'4 0.3
2017-Oct-12 16:24N 68°51' E 016°30'0 1.2
2017-Oct-12 16:00N 68°51' E 016°30'4 8.5
2017-Oct-12 15:30N 68°54' E 016°21'4 8.1
2017-Oct-12 15:00N 68°57' E 016°12'4 8.4
2017-Oct-12 14:30N 68°58' E 016°01'4 8.1
2017-Oct-12 14:00N 68°59' E 015°50'4 8.2
2017-Oct-12 13:30N 68°58' E 015°39'4 8.3
2017-Oct-12 13:00N 68°54' E 015°35'4 8.5
2017-Oct-12 12:30N 68°51' E 015°29'4 8.5
2017-Oct-12 12:00N 68°46' E 015°26'4 8.7
2017-Oct-12 11:30N 68°42' E 015°26'4 8.2
2017-Oct-12 11:00N 68°38' E 015°28'2 4.1
2017-Oct-12 10:30N 68°38' E 015°34'0 0.0
2017-Oct-12 10:00N 68°38' E 015°34'0 0.0
2017-Oct-12 09:30N 68°38' E 015°34'0 0.0
2017-Oct-12 09:00N 68°38' E 015°34'0 0.0
2017-Oct-12 08:29N 68°38' E 015°34'0 0.0
2017-Oct-12 08:00N 68°38' E 015°34'0 0.0
2017-Oct-12 07:30N 68°38' E 015°34'0 0.0
2017-Oct-12 06:59N 68°38' E 015°34'0 0.0
2017-Oct-12 06:30N 68°38' E 015°34'0 0.0
2017-Oct-12 06:00N 68°38' E 015°34'0 0.0
2017-Oct-12 05:30N 68°38' E 015°34'1 1.6
2017-Oct-12 05:00N 68°38' E 015°32'3 6.7
2017-Oct-12 04:30N 68°41' E 015°26'3 6.2
2017-Oct-12 04:00N 68°44' E 015°25'3 6.3
2017-Oct-12 03:30N 68°47' E 015°26'3 6.2
2017-Oct-12 03:00N 68°50' E 015°28'3 6.2
2017-Oct-12 02:30N 68°53' E 015°32'3 6.2
2017-Oct-12 02:00N 68°56' E 015°35'3 6.3
2017-Oct-12 01:30N 68°58' E 015°40'4 7.1
2017-Oct-12 01:00N 68°59' E 015°50'3 6.6
2017-Oct-12 00:30N 68°57' E 015°57'4 8.0
2017-Oct-12 00:00N 68°53' E 016°01'4 8.1
2017-Oct-11 23:30N 68°49' E 016°04'4 7.0
2017-Oct-11 23:00N 68°46' E 016°10'0 0.0
2017-Oct-11 22:30N 68°46' E 016°10'0 0.0
2017-Oct-11 21:59N 68°46' E 016°10'0 0.0
2017-Oct-11 21:30N 68°46' E 016°10'0 0.0
2017-Oct-11 21:01N 68°46' E 016°10'0 0.0
2017-Oct-11 20:29N 68°46' E 016°10'0 0.0
2017-Oct-11 20:00N 68°46' E 016°10'0 0.0
2017-Oct-11 19:31N 68°46' E 016°10'0 0.0
2017-Oct-11 19:00N 68°46' E 016°10'0 0.0
2017-Oct-11 18:30N 68°46' E 016°10'0 0.0
2017-Oct-11 18:00N 68°46' E 016°10'0 0.0
2017-Oct-11 17:30N 68°46' E 016°10'0 0.0
2017-Oct-11 17:00N 68°46' E 016°10'0 0.0
2017-Oct-11 00:00N 68°46' E 016°10'0 0.0
2017-Oct-10 23:30N 68°46' E 016°10'0 0.0
2017-Oct-10 23:00N 68°46' E 016°10'0 0.0
2017-Oct-10 22:30N 68°46' E 016°10'0 0.0
2017-Oct-10 22:00N 68°46' E 016°10'0 0.0
2017-Oct-10 21:30N 68°46' E 016°10'0 0.0
2017-Oct-10 21:00N 68°46' E 016°10'0 0.0
2017-Oct-10 20:30N 68°46' E 016°10'0 0.0
2017-Oct-10 20:00N 68°46' E 016°10'0 0.0
2017-Oct-10 19:30N 68°46' E 016°10'0 0.0
2017-Oct-10 19:00N 68°46' E 016°10'2 3.1
2017-Oct-10 18:30N 68°47' E 016°07'4 8.5
2017-Oct-10 18:00N 68°51' E 016°03'4 8.7
2017-Oct-10 17:30N 68°55' E 015°59'4 8.3
2017-Oct-10 17:00N 68°59' E 015°54'4 8.3
2017-Oct-10 16:30N 68°59' E 015°42'4 7.7
2017-Oct-10 15:59N 68°56' E 015°35'4 8.5
2017-Oct-10 15:30N 68°52' E 015°30'4 8.7
2017-Oct-10 15:00N 68°48' E 015°26'9 9.1
2017-Oct-10 14:00N 68°39' E 015°27'  

Dump ship's entire track history